Time;durP1;ratioP1;P1;durP2;ratioP2;P2;SDS_P1;SDS_P2;PMS_P1;PMS_P2;Temp;Humidity;BMP_temperature;BMP_pressure;BME280_temperature;BME280_humidity;BME280_pressure;Samples;Min_cycle;Max_cycle;Signal;HPM_P1;HPM_P2
2022/09/22 00:01:32;;;;;;;0.10;0.10;;;;;;;6.25;100.00;102453.31;5019348;28;20022;-68
2022/09/22 00:04:00;;;;;;;0.10;0.10;;;;;;;6.25;100.00;102458.66;5018887;28;20141;-68
2022/09/22 00:06:31;;;;;;;0.00;0.00;;;;;;;6.22;100.00;102458.78;5022148;28;20549;-68
2022/09/22 00:09:02;;;;;;;0.10;0.10;;;;;;;6.23;100.00;102460.50;5022341;28;20032;-68
2022/09/22 00:11:34;;;;;;;0.10;0.10;;;;;;;6.19;100.00;102456.22;5019899;28;20068;-68
2022/09/22 00:14:02;;;;;;;0.10;0.10;;;;;;;6.12;100.00;102447.53;5017919;28;20033;-68
2022/09/22 00:16:31;;;;;;;0.10;0.10;;;;;;;6.13;100.00;102451.09;5019963;28;20071;-68
2022/09/22 00:18:56;;;;;;;0.10;0.10;;;;;;;6.10;100.00;102452.03;5021835;28;20127;-68
2022/09/22 00:21:23;;;;;;;0.05;0.05;;;;;;;6.08;100.00;102456.59;5015964;28;20499;-68
2022/09/22 00:23:49;;;;;;;0.10;0.10;;;;;;;6.06;100.00;102445.09;5021769;28;20144;-68
2022/09/22 00:26:20;;;;;;;0.00;0.00;;;;;;;6.06;100.00;102452.22;5019460;28;20018;-68
2022/09/22 00:28:46;;;;;;;0.10;0.10;;;;;;;6.05;100.00;102450.47;5021100;28;20025;-68
2022/09/22 00:31:19;;;;;;;0.10;0.10;;;;;;;6.04;100.00;102443.38;5018435;28;20021;-68
2022/09/22 00:33:45;;;;;;;0.10;0.10;;;;;;;6.03;100.00;102441.63;5020090;28;20365;-68
2022/09/22 00:36:11;;;;;;;0.10;0.10;;;;;;;6.02;100.00;102443.44;5022114;28;20052;-68
2022/09/22 00:38:37;;;;;;;0.10;0.10;;;;;;;5.95;100.00;102428.53;5017514;28;20029;-68
2022/09/22 00:41:04;;;;;;;0.10;0.10;;;;;;;5.95;100.00;102440.09;5003264;28;20025;-68
2022/09/22 00:43:32;;;;;;;0.00;0.00;;;;;;;5.88;100.00;102434.97;5019834;28;20144;-68
2022/09/22 00:46:07;;;;;;;0.00;0.00;;;;;;;5.88;100.00;102434.97;5015631;28;20034;-68
2022/09/22 00:48:36;;;;;;;0.10;0.10;;;;;;;5.90;100.00;102441.13;5023787;28;20087;-68
2022/09/22 00:51:03;;;;;;;0.03;0.03;;;;;;;5.84;100.00;102443.06;5021982;28;20539;-68
2022/09/22 00:53:30;;;;;;;0.00;0.00;;;;;;;5.78;100.00;102431.75;5020145;28;20494;-68
2022/09/22 00:56:02;;;;;;;0.10;0.10;;;;;;;5.71;100.00;102426.59;5018392;28;20527;-68
2022/09/22 00:58:36;;;;;;;0.10;0.10;;;;;;;5.77;100.00;102427.34;5019181;28;20038;-68
2022/09/22 01:01:02;;;;;;;0.10;0.10;;;;;;;5.46;100.00;102367.03;5019383;28;20123;-68
2022/09/22 01:03:28;;;;;;;0.10;0.10;;;;;;;5.74;100.00;102424.75;5005778;28;20043;-68
2022/09/22 01:05:57;;;;;;;0.00;0.00;;;;;;;5.70;100.00;102419.53;5019174;28;20462;-68
2022/09/22 01:08:23;;;;;;;0.10;0.10;;;;;;;5.68;100.00;102413.41;5014736;28;20029;-68
2022/09/22 01:10:50;;;;;;;0.10;0.10;;;;;;;5.66;100.00;102412.56;5012376;28;20361;-68
2022/09/22 01:13:23;;;;;;;0.10;0.10;;;;;;;5.62;100.00;102405.59;5016661;28;20029;-68
2022/09/22 01:16:13;;;;;;;0.00;0.00;;;;;;;5.64;100.00;102417.09;5021921;28;20021;-68
2022/09/22 01:18:47;;;;;;;0.03;0.03;;;;;;;5.65;100.00;102407.28;5020699;28;20345;-68
2022/09/22 01:21:19;;;;;;;0.03;0.03;;;;;;;5.63;100.00;102401.13;5019307;28;20104;-68
2022/09/22 01:23:50;;;;;;;0.10;0.10;;;;;;;5.64;100.00;102400.19;5018131;28;20029;-68
2022/09/22 01:26:44;;;;;;;0.10;0.10;;;;;;;5.63;100.00;102404.69;5021035;28;20136;-68
2022/09/22 01:29:29;;;;;;;0.10;0.10;;;;;;;5.58;100.00;102398.63;5022057;28;20116;-68
2022/09/22 01:32:31;;;;;;;0.05;0.05;;;;;;;5.54;100.00;102394.31;5024544;28;20033;-68
2022/09/22 01:35:05;;;;;;;0.00;0.00;;;;;;;5.52;100.00;102393.47;5022617;28;20033;-68
2022/09/22 01:37:42;;;;;;;0.08;0.08;;;;;;;5.49;100.00;102398.91;5026527;28;20025;-68
2022/09/22 01:40:20;;;;;;;0.10;0.10;;;;;;;5.47;100.00;102396.28;5018297;28;20037;-68
2022/09/22 01:42:52;;;;;;;0.10;0.10;;;;;;;5.47;100.00;102400.72;5022895;28;20437;-68
2022/09/22 01:45:21;;;;;;;0.10;0.10;;;;;;;5.44;100.00;102404.38;5024063;28;20410;-68
2022/09/22 01:47:52;;;;;;;0.05;0.05;;;;;;;5.40;100.00;102395.63;5019860;28;20052;-68
2022/09/22 01:50:24;;;;;;;0.10;0.10;;;;;;;5.38;100.00;102400.13;5021714;28;20032;-68
2022/09/22 01:52:51;;;;;;;0.00;0.00;;;;;;;5.40;100.00;102395.63;5018612;28;20038;-68
2022/09/22 01:55:28;;;;;;;0.10;0.10;;;;;;;5.39;100.00;102387.66;5015266;28;20394;-68
2022/09/22 01:58:14;;;;;;;0.10;0.10;;;;;;;5.37;100.00;102387.72;5020370;28;20025;-68
2022/09/22 02:00:43;;;;;;;0.10;0.10;;;;;;;5.20;100.00;102360.72;5038168;28;20029;-68
2022/09/22 02:03:12;;;;;;;0.10;0.10;;;;;;;5.22;100.00;102356.22;5021949;28;20029;-68
2022/09/22 02:05:42;;;;;;;0.10;0.10;;;;;;;5.16;100.00;102351.09;5023478;28;20144;-68
2022/09/22 02:08:12;;;;;;;0.10;0.10;;;;;;;5.32;100.00;102375.44;5021001;28;20538;-68
2022/09/22 02:10:40;;;;;;;0.10;0.10;;;;;;;5.29;100.00;102363.09;5021229;28;20026;-68
2022/09/22 02:13:06;;;;;;;0.10;0.10;;;;;;;5.13;100.00;102345.88;5023803;28;20040;-68
2022/09/22 02:18:31;;;;;;;0.10;0.10;;;;;;;5.21;100.00;102358.03;5021384;28;20032;-68
2022/09/22 02:20:56;;;;;;;0.10;0.10;;;;;;;5.08;100.00;102338.00;5021488;28;20041;-68
2022/09/22 02:23:22;;;;;;;0.10;0.10;;;;;;;5.17;100.00;102350.16;5019951;28;20372;-68
2022/09/22 02:25:47;;;;;;;0.08;0.08;;;;;;;5.19;100.00;102358.97;5018190;28;20052;-68
2022/09/22 02:28:15;;;;;;;0.10;0.10;;;;;;;5.16;100.00;102353.78;5027239;28;20112;-68
2022/09/22 02:30:41;;;;;;;0.10;0.10;;;;;;;5.16;100.00;102356.44;5023765;28;20028;-68
2022/09/22 02:33:07;;;;;;;0.10;0.10;;;;;;;5.13;100.00;102359.19;5023170;28;20467;-68
2022/09/22 02:35:34;;;;;;;0.00;0.00;;;;;;;5.09;100.00;102353.94;5018661;28;20032;-68
2022/09/22 02:38:04;;;;;;;0.10;0.10;;;;;;;5.08;100.00;102356.63;5019950;28;20025;-68
2022/09/22 02:40:59;;;;;;;0.10;0.10;;;;;;;5.06;100.00;102350.47;5017594;28;20079;-68
2022/09/22 02:43:30;;;;;;;;;;;;;;;5.00;100.00;102342.72;5011295;28;20057;-68
2022/09/22 02:46:24;;;;;;;0.10;0.10;;;;;;;5.00;100.00;102350.69;5022252;28;19968;-68
2022/09/22 02:49:02;;;;;;;0.10;0.10;;;;;;;4.99;100.00;102347.16;5020043;28;20116;-68
2022/09/22 02:51:31;;;;;;;0.10;0.10;;;;;;;4.99;100.00;102346.28;5036601;28;20037;-68
2022/09/22 02:53:57;;;;;;;0.10;0.10;;;;;;;5.00;100.00;102343.56;5018465;28;20045;-68
2022/09/22 02:56:22;;;;;;;0.10;0.10;;;;;;;5.01;100.00;102341.78;5018696;28;20056;-68
2022/09/22 02:58:47;;;;;;;0.03;0.03;;;;;;;5.03;100.00;102345.28;5021498;28;20071;-68
2022/09/22 03:01:13;;;;;;;0.10;0.10;;;;;;;5.04;100.00;102341.66;5020565;28;20029;-68
2022/09/22 03:03:38;;;;;;;0.10;0.10;;;;;;;4.99;100.00;102327.66;5020862;28;20418;-68
2022/09/22 03:06:04;;;;;;;0.10;0.10;;;;;;;4.80;100.00;102302.47;5019282;28;20068;-68
2022/09/22 03:08:29;;;;;;;0.10;0.10;;;;;;;5.02;100.00;102339.06;5020629;28;20033;-68
2022/09/22 03:10:54;;;;;;;0.00;0.00;;;;;;;4.97;100.00;102337.47;5022702;28;20033;-68
2022/09/22 03:13:19;;;;;;;0.10;0.10;;;;;;;4.78;100.00;102322.91;5021820;28;20063;-68
2022/09/22 03:15:45;;;;;;;0.10;0.10;;;;;;;4.85;100.00;102341.38;5017831;28;20033;-68
2022/09/22 03:18:11;;;;;;;0.00;0.00;;;;;;;4.82;100.00;102339.66;5020763;28;20040;-68
2022/09/22 03:20:36;;;;;;;0.10;0.10;;;;;;;4.77;100.00;102328.28;5015869;28;20035;-68
2022/09/22 03:23:01;;;;;;;0.10;0.10;;;;;;;4.80;100.00;102333.50;5023754;28;20044;-68
2022/09/22 03:25:26;;;;;;;0.10;0.10;;;;;;;4.78;100.00;102335.34;5020051;28;20037;-68
2022/09/22 03:27:52;;;;;;;0.10;0.10;;;;;;;4.71;100.00;102332.00;5022125;28;20083;-68
2022/09/22 03:30:17;;;;;;;0.20;0.10;;;;;;;4.70;100.00;102329.41;5022851;28;20083;-68
2022/09/22 03:32:42;;;;;;;0.10;0.10;;;;;;;4.69;100.00;102327.66;5004421;28;20490;-68
2022/09/22 03:35:08;;;;;;;0.10;0.10;;;;;;;4.64;100.00;102336.63;5017391;28;20451;-68
2022/09/22 03:37:34;;;;;;;0.10;0.10;;;;;;;4.60;100.00;102331.44;5018638;28;20515;-68
2022/09/22 03:39:59;;;;;;;0.00;0.00;;;;;;;4.55;100.00;102328.91;5015815;28;20448;-68
2022/09/22 03:42:25;;;;;;;0.10;0.10;;;;;;;4.51;100.00;102329.91;5018642;28;20033;-68
2022/09/22 03:44:50;;;;;;;0.10;0.10;;;;;;;4.37;100.00;102313.47;5020186;28;20120;-68
2022/09/22 03:47:15;;;;;;;0.10;0.10;;;;;;;4.40;100.00;102322.22;5026337;28;20064;-68
2022/09/22 03:49:41;;;;;;;0.10;0.10;;;;;;;4.37;100.00;102327.63;5026128;28;20387;-68
2022/09/22 03:52:06;;;;;;;0.00;0.00;;;;;;;4.08;100.00;102284.13;5024125;28;20041;-68
2022/09/22 03:54:31;;;;;;;0.10;0.10;;;;;;;4.33;100.00;102323.34;5023397;28;20064;-68
2022/09/22 03:56:57;;;;;;;0.10;0.10;;;;;;;4.37;100.00;102321.44;5023857;28;20042;-68
2022/09/22 03:59:23;;;;;;;0.10;0.10;;;;;;;4.42;100.00;102320.41;5024860;28;20084;-68
2022/09/22 04:01:48;;;;;;;0.10;0.10;;;;;;;4.45;100.00;102325.63;5023730;28;20022;-68
2022/09/22 04:04:14;;;;;;;0.10;0.10;;;;;;;4.46;100.00;102319.41;5024498;28;20561;-68
2022/09/22 04:06:39;;;;;;;0.00;0.00;;;;;;;4.42;100.00;102298.25;5022611;28;20412;-67
2022/09/22 04:09:04;;;;;;;0.10;0.10;;;;;;;4.57;100.00;102316.44;5020037;28;20399;-68
2022/09/22 04:11:30;;;;;;;0.10;0.10;;;;;;;4.57;100.00;102318.22;5020398;28;20044;-68
2022/09/22 04:13:56;;;;;;;0.00;0.00;;;;;;;4.51;100.00;102297.97;5020633;28;20136;-67
2022/09/22 04:16:21;;;;;;;0.10;0.10;;;;;;;4.44;100.00;102307.06;5019556;28;20026;-68
2022/09/22 04:18:46;;;;;;;0.10;0.10;;;;;;;4.34;100.00;102304.66;5020494;28;20140;-67
2022/09/22 04:21:12;;;;;;;0.00;0.00;;;;;;;4.28;100.00;102303.97;5020430;28;20781;-67
2022/09/22 04:23:37;;;;;;;0.10;0.10;;;;;;;4.28;100.00;102309.28;5018827;28;20415;-68
2022/09/22 04:26:03;;;;;;;0.00;0.00;;;;;;;4.26;100.00;102304.00;5016679;28;20519;-67
2022/09/22 04:28:29;;;;;;;0.10;0.10;;;;;;;4.24;100.00;102294.34;5021838;28;20025;-67
2022/09/22 04:30:54;;;;;;;0.10;0.10;;;;;;;4.26;100.00;102301.34;5020226;28;20040;-67
2022/09/22 04:33:19;;;;;;;0.10;0.10;;;;;;;4.29;100.00;102309.22;5018942;28;20034;-67
2022/09/22 04:35:47;;;;;;;0.10;0.10;;;;;;;4.35;100.00;102313.53;5020132;28;20063;-67
2022/09/22 04:38:13;;;;;;;0.10;0.10;;;;;;;4.40;100.00;102302.75;5021585;28;20022;-68
2022/09/22 04:40:38;;;;;;;0.10;0.10;;;;;;;4.42;100.00;102298.25;5021431;28;20040;-68
2022/09/22 04:43:04;;;;;;;0.10;0.10;;;;;;;4.49;100.00;102303.34;5021517;28;20034;-68
2022/09/22 04:45:29;;;;;;;0.10;0.10;;;;;;;4.49;100.00;102294.53;5023530;28;20469;-68
2022/09/22 04:47:54;;;;;;;0.10;0.10;;;;;;;4.47;100.00;102283.91;5022407;28;20037;-68
2022/09/22 04:50:21;;;;;;;0.10;0.10;;;;;;;4.49;100.00;102297.19;5026305;28;20056;-68
2022/09/22 04:52:50;;;;;;;0.10;0.10;;;;;;;4.45;100.00;102298.19;5017236;28;20028;-68
2022/09/22 04:55:16;;;;;;;0.10;0.10;;;;;;;4.41;100.00;102296.53;5013950;28;20505;-68
2022/09/22 04:57:45;;;;;;;0.00;0.00;;;;;;;4.35;100.00;102294.91;5012544;28;20034;-68
2022/09/22 05:00:11;;;;;;;0.10;0.10;;;;;;;4.40;100.00;102298.28;5027657;28;20456;-68
2022/09/22 05:02:36;;;;;;;0.10;0.10;;;;;;;4.43;100.00;102305.31;5022246;28;20059;-68
2022/09/22 05:05:04;;;;;;;0.10;0.10;;;;;;;4.46;100.00;102311.41;5023758;28;20099;-68
2022/09/22 05:07:29;;;;;;;0.10;0.10;;;;;;;4.46;100.00;102313.22;5028289;28;20517;-68
2022/09/22 05:09:55;;;;;;;0.20;0.10;;;;;;;4.44;100.00;102307.94;5024306;28;20042;-68
2022/09/22 05:12:20;;;;;;;0.10;0.10;;;;;;;4.30;100.00;102294.16;5027145;28;20055;-68
2022/09/22 05:14:45;;;;;;;0.10;0.10;;;;;;;4.39;100.00;102307.19;5026063;28;20025;-68
2022/09/22 05:17:11;;;;;;;0.10;0.10;;;;;;;4.33;100.00;102315.34;5023681;28;20019;-68
2022/09/22 05:19:36;;;;;;;0.10;0.10;;;;;;;4.07;100.00;102281.50;5021398;28;20076;-68
2022/09/22 05:22:01;;;;;;;0.10;0.10;;;;;;;4.18;100.00;102311.34;5029509;28;20033;-68
2022/09/22 05:24:27;;;;;;;0.10;0.10;;;;;;;4.15;100.00;102301.63;5020196;28;20029;-69
2022/09/22 05:26:52;;;;;;;0.10;0.10;;;;;;;4.20;100.00;102301.53;5023133;28;20418;-69
2022/09/22 05:29:18;;;;;;;0.00;0.00;;;;;;;4.32;100.00;102313.63;5025355;28;20057;-68
2022/09/22 05:31:44;;;;;;;0.10;0.10;;;;;;;4.37;100.00;102319.66;5028437;28;20033;-69
2022/09/22 05:34:10;;;;;;;0.10;0.10;;;;;;;4.42;100.00;102324.88;5023232;28;20029;-68
2022/09/22 05:36:35;;;;;;;0.10;0.10;;;;;;;4.45;100.00;102322.97;5018511;28;20036;-68
2022/09/22 05:39:00;;;;;;;0.10;0.10;;;;;;;4.48;100.00;102316.72;5021883;28;20022;-68
2022/09/22 05:41:26;;;;;;;0.10;0.10;;;;;;;4.50;100.00;102315.75;5026245;28;20080;-68
2022/09/22 05:43:51;;;;;;;0.10;0.10;;;;;;;4.53;100.00;102313.91;5024805;28;20068;-68
2022/09/22 05:46:17;;;;;;;0.47;0.15;;;;;;;4.57;100.00;102307.59;5033478;28;20464;-68
2022/09/22 05:48:42;;;;;;;0.10;0.10;;;;;;;4.62;100.00;102316.31;5028355;28;20048;-68
2022/09/22 05:51:07;;;;;;;0.10;0.10;;;;;;;4.65;100.00;102316.19;5030291;28;20029;-68
2022/09/22 05:53:32;;;;;;;0.10;0.10;;;;;;;4.65;100.00;102314.44;5028147;28;20033;-68
2022/09/22 05:55:59;;;;;;;0.10;0.10;;;;;;;4.56;100.00;102305.84;5015117;28;20436;-68
2022/09/22 05:58:24;;;;;;;0.10;0.10;;;;;;;4.56;100.00;102313.84;5032065;28;20032;-68
2022/09/22 06:00:49;;;;;;;0.10;0.10;;;;;;;4.58;100.00;102319.97;5026991;28;20030;-69
2022/09/22 06:03:15;;;;;;;0.10;0.10;;;;;;;4.60;100.00;102315.50;5024781;28;20084;-69
2022/09/22 06:05:40;;;;;;;0.10;0.10;;;;;;;4.64;100.00;102314.47;5025944;28;20021;-71
2022/09/22 06:08:06;;;;;;;0.05;0.05;;;;;;;4.73;100.00;102316.84;5026436;28;20026;-72
2022/09/22 06:10:36;;;;;;;0.10;0.10;;;;;;;4.74;100.00;102302.63;5015103;28;20546;-73
2022/09/22 06:13:06;;;;;;;0.10;0.10;;;;;;;4.91;100.00;102312.78;5024060;28;20118;-72
2022/09/22 06:15:35;;;;;;;0.10;0.10;;;;;;;5.06;100.00;102319.44;5019613;28;20036;-73
2022/09/22 06:18:02;;;;;;;0.10;0.10;;;;;;;5.19;100.00;102321.69;5014607;28;20022;-73
2022/09/22 06:20:28;;;;;;;0.10;0.10;;;;;;;5.06;100.00;102274.16;5020396;28;20069;-72
2022/09/22 06:22:53;;;;;;;0.10;0.10;;;;;;;5.39;100.00;102310.41;5022032;28;20391;-72
2022/09/22 06:25:19;;;;;;;0.10;0.10;;;;;;;5.63;100.00;102321.19;5024027;28;20157;-72
2022/09/22 06:27:45;;;;;;;0.22;0.10;;;;;;;5.73;100.00;102313.75;5020043;28;20063;-72
2022/09/22 06:30:12;;;;;;;0.10;0.10;;;;;;;5.97;100.00;102322.72;5032094;28;20394;-72
2022/09/22 06:32:42;;;;;;;0.10;0.10;;;;;;;6.09;100.00;102321.44;5024108;28;20085;-72
2022/09/22 06:35:08;;;;;;;0.10;0.10;;;;;;;6.14;100.00;102307.00;5026149;28;20545;-73
2022/09/22 06:37:37;;;;;;;0.10;0.10;;;;;;;6.32;100.00;102299.28;5027827;28;20034;-72
2022/09/22 06:40:03;;;;;;;0.10;0.10;;;;;;;6.48;100.00;102304.06;5020163;28;20025;-72
2022/09/22 06:42:28;;;;;;;0.10;0.10;;;;;;;6.69;100.00;102319.25;5022654;28;20037;-73
2022/09/22 06:44:54;;;;;;;0.10;0.10;;;;;;;6.75;100.00;102304.81;5024223;28;20033;-72
2022/09/22 06:47:19;;;;;;;0.10;0.10;;;;;;;6.95;100.00;102308.53;5023658;28;20111;-72
2022/09/22 06:49:45;;;;;;;0.00;0.00;;;;;;;7.07;100.00;102301.81;5019327;28;20040;-73
2022/09/22 06:52:13;;;;;;;0.10;0.10;;;;;;;7.26;100.00;102310.84;5025854;28;20062;-72
2022/09/22 06:54:40;;;;;;;0.10;0.10;;;;;;;7.28;100.00;102300.97;5022147;28;20419;-73
2022/09/22 06:57:06;;;;;;;0.00;0.00;;;;;;;7.30;100.00;102282.19;5017906;28;20026;-73
2022/09/22 06:59:32;;;;;;;0.10;0.10;;;;;;;7.59;100.00;102302.38;5026880;28;20391;-73
2022/09/22 07:01:57;;;;;;;0.10;0.10;;;;;;;7.68;100.00;102305.59;5023039;28;20112;-73
2022/09/22 07:04:22;;;;;;;0.10;0.10;;;;;;;7.90;100.00;102322.47;5018003;28;20047;-72
2022/09/22 07:06:49;;;;;;;0.10;0.10;;;;;;;7.93;100.00;102300.94;5020731;28;20925;-73
2022/09/22 07:09:15;;;;;;;0.10;0.10;;;;;;;8.17;100.00;102310.63;5021093;28;20080;-72
2022/09/22 07:11:40;;;;;;;0.10;0.10;;;;;;;8.31;100.00;102316.25;5019546;28;20468;-73
2022/09/22 07:14:06;;;;;;;0.10;0.10;;;;;;;8.37;100.00;102297.22;5017642;28;20518;-72
2022/09/22 07:16:31;;;;;;;0.10;0.10;;;;;;;8.60;100.00;102303.38;5008460;28;20466;-72
2022/09/22 07:19:00;;;;;;;0.10;0.10;;;;;;;8.64;100.00;102288.88;5024340;28;20423;-73
2022/09/22 07:21:28;;;;;;;0.10;0.10;;;;;;;8.89;100.00;102313.66;5025049;28;20037;-73
2022/09/22 07:23:54;;;;;;;0.10;0.10;;;;;;;8.89;100.00;102285.06;5020750;28;20029;-73
2022/09/22 07:26:27;;;;;;;0.10;0.10;;;;;;;9.11;100.00;102292.94;5011041;28;20363;-72
2022/09/22 07:28:53;;;;;;;0.10;0.10;;;;;;;9.39;100.00;102309.50;5024393;28;20421;-73
2022/09/22 07:31:19;;;;;;;0.10;0.10;;;;;;;9.38;100.00;102297.88;5023320;28;20148;-73
2022/09/22 07:33:45;;;;;;;0.08;0.08;;;;;;;9.47;100.00;102284.97;5025514;28;20090;-72
2022/09/22 07:36:14;;;;;;;0.10;0.10;;;;;;;9.74;100.00;102301.47;5001605;28;20381;-73
2022/09/22 07:38:41;;;;;;;0.10;0.10;;;;;;;9.89;100.00;102311.44;5023021;28;20025;-72
2022/09/22 07:41:10;;;;;;;0.10;0.10;;;;;;;10.05;100.00;102305.25;5029702;28;20057;-73
2022/09/22 07:43:36;;;;;;;0.10;0.10;;;;;;;10.21;100.00;102308.00;5019844;28;20214;-73
2022/09/22 07:46:02;;;;;;;0.10;0.10;;;;;;;10.40;100.00;102305.25;5024881;28;20068;-73
2022/09/22 07:48:41;;;;;;;0.10;0.10;;;;;;;10.50;100.00;102308.31;5029297;28;20026;-73
2022/09/22 07:51:18;;;;;;;0.10;0.10;;;;;;;10.65;100.00;102306.59;5027957;28;20040;-74
2022/09/22 07:53:45;;;;;;;0.10;0.10;;;;;;;10.76;100.00;102309.56;5022015;28;20139;-74
2022/09/22 07:56:13;;;;;;;0.10;0.10;;;;;;;10.94;100.00;102306.81;5019922;28;20032;-74
2022/09/22 07:58:41;;;;;;;0.10;0.10;;;;;;;11.04;99.08;102304.47;5021922;28;20067;-75
2022/09/22 08:01:08;;;;;;;0.05;0.05;;;;;;;11.14;98.45;102294.91;5025785;28;20044;-74
2022/09/22 08:03:36;;;;;;;0.10;0.10;;;;;;;11.16;99.41;102284.09;5004921;28;20132;-73
2022/09/22 08:06:10;;;;;;;0.10;0.10;;;;;;;11.44;98.18;102304.00;5018442;28;20025;-73
2022/09/22 08:08:40;;;;;;;0.10;0.10;;;;;;;11.59;94.14;102311.16;5030088;28;20054;-73
2022/09/22 08:11:07;;;;;;;0.10;0.10;;;;;;;11.54;93.81;102281.84;5022881;28;20084;-73
2022/09/22 08:13:36;;;;;;;0.10;0.05;;;;;;;11.88;95.41;102299.66;5022201;28;20035;-72
2022/09/22 08:16:03;;;;;;;0.10;0.10;;;;;;;12.07;93.76;102302.97;5022404;28;20076;-73
2022/09/22 08:18:29;;;;;;;0.08;0.08;;;;;;;12.12;91.75;102297.31;5031121;28;20021;-74
2022/09/22 08:20:55;;;;;;;0.20;0.10;;;;;;;12.06;92.15;102260.00;5024907;28;20036;-73
2022/09/22 08:23:20;;;;;;;0.10;0.10;;;;;;;12.34;91.64;102293.28;5026013;28;20191;-77
2022/09/22 08:25:45;;;;;;;0.10;0.10;;;;;;;12.41;93.04;102290.13;5020752;28;20032;-74
2022/09/22 08:28:11;;;;;;;0.10;0.10;;;;;;;12.47;91.91;102271.84;5021887;28;20505;-75
2022/09/22 08:30:38;;;;;;;0.10;0.10;;;;;;;12.69;88.15;102287.50;5022025;28;20056;-74
2022/09/22 08:33:03;;;;;;;0.10;0.10;;;;;;;12.82;89.04;102285.78;5022063;28;20477;-73
2022/09/22 08:35:28;;;;;;;0.10;0.10;;;;;;;12.98;86.90;102292.84;5018654;28;20037;-73
2022/09/22 08:37:53;;;;;;;0.00;0.00;;;;;;;13.16;86.40;102296.19;5003344;28;20674;-73
2022/09/22 08:40:22;;;;;;;0.10;0.10;;;;;;;13.34;86.47;102280.63;5023385;28;20547;-73
2022/09/22 08:42:48;;;;;;;0.00;0.00;;;;;;;13.40;87.44;102271.25;5004282;28;20436;-73
2022/09/22 08:45:30;;;;;;;0.10;0.10;;;;;;;13.67;87.53;102286.56;5026390;28;20463;-73
2022/09/22 08:53:44;;;;;;;0.05;0.05;;;;;;;13.90;82.88;102285.84;5018424;28;20099;-76
2022/09/22 08:56:31;;;;;;;0.10;0.10;;;;;;;13.88;84.70;102259.94;5021947;28;20075;-75
2022/09/22 08:59:18;;;;;;;0.10;0.10;;;;;;;14.35;83.51;102287.25;5023777;28;20025;-72
2022/09/22 09:01:56;;;;;;;0.10;0.10;;;;;;;14.48;83.37;102289.97;4999785;28;20029;-75
2022/09/22 09:04:49;;;;;;;0.10;0.10;;;;;;;14.54;82.61;102282.28;5018954;28;20025;-72
2022/09/22 09:07:17;;;;;;;0.03;0.03;;;;;;;14.59;80.32;102287.34;5028448;28;20030;-73
2022/09/22 09:10:14;;;;;;;0.10;0.10;;;;;;;14.54;80.03;102270.59;5018698;28;20057;-76
2022/09/22 09:12:52;;;;;;;0.00;0.00;;;;;;;14.90;80.17;102290.56;5023908;28;20068;-72
2022/09/22 09:15:36;;;;;;;0.00;0.00;;;;;;;15.07;79.41;102289.34;5020611;28;20479;-77
2022/09/22 09:18:05;;;;;;;0.00;0.00;;;;;;;15.08;79.52;102277.53;5022866;28;20148;-77
2022/09/22 09:20:37;;;;;;;0.00;0.00;;;;;;;15.30;78.68;102290.31;5023046;28;20725;-74
2022/09/22 09:23:07;;;;;;;0.00;0.00;;;;;;;15.38;75.12;102281.59;5022387;28;20460;-76
2022/09/22 09:25:39;;;;;;;0.10;0.10;;;;;;;15.45;75.93;102276.63;5015566;28;20067;-75
2022/09/22 09:28:09;;;;;;;0.10;0.10;;;;;;;15.66;76.63;102279.50;5022446;28;21180;-76
2022/09/22 09:30:42;;;;;;;0.00;0.00;;;;;;;15.93;73.66;102293.78;5020073;28;20067;-77
2022/09/22 09:33:15;;;;;;;0.00;0.00;;;;;;;15.81;74.74;102276.59;4998858;28;20081;-76
2022/09/22 09:35:52;;;;;;;0.10;0.10;;;;;;;15.79;72.38;102267.72;5018411;28;20029;-79
2022/09/22 09:38:38;;;;;;;0.00;0.00;;;;;;;15.90;71.96;102286.72;5017577;28;20029;-76
2022/09/22 09:41:20;;;;;;;0.05;0.05;;;;;;;15.97;73.85;102268.19;5016102;28;20022;-75
2022/09/22 09:43:45;;;;;;;0.10;0.10;;;;;;;16.07;72.64;102255.63;5019758;28;20104;-73
2022/09/22 09:46:36;;;;;;;0.00;0.00;;;;;;;16.42;69.13;102283.63;5008640;28;20132;-76
2022/09/22 09:49:20;;;;;;;0.10;0.10;;;;;;;16.59;68.22;102285.84;5037976;28;20651;-73
2022/09/22 09:51:51;;;;;;;0.10;0.10;;;;;;;16.98;69.55;102277.31;5042371;28;20075;-72
2022/09/22 09:54:17;;;;;;;0.00;0.00;;;;;;;16.98;67.73;102271.00;5026065;28;20029;-74
2022/09/22 09:57:05;;;;;;;0.00;0.00;;;;;;;17.07;68.86;102278.41;5005932;28;20124;-74
2022/09/22 10:02:15;;;;;;;;;;;;;;;17.03;61.27;102275.09;5025428;28;20055;-74
2022/09/22 10:04:51;;;;;;;0.00;0.00;;;;;;;17.22;59.92;102270.84;5018364;28;19913;-75
2022/09/22 10:07:23;;;;;;;0.10;0.10;;;;;;;17.00;59.52;102259.06;5018586;28;20129;-73
2022/09/22 10:09:50;;;;;;;0.10;0.10;;;;;;;16.92;61.20;102270.53;5020659;28;20045;-71
2022/09/22 10:12:26;;;;;;;0.10;0.10;;;;;;;17.29;59.22;102263.91;5035479;28;20128;-74
2022/09/22 10:14:56;;;;;;;0.00;0.00;;;;;;;17.12;57.69;102267.16;5024966;28;20080;-72
2022/09/22 10:17:38;;;;;;;0.00;0.00;;;;;;;17.22;58.99;102258.13;5017910;28;20045;-75
2022/09/22 10:20:22;;;;;;;0.10;0.10;;;;;;;17.32;57.24;102257.34;5024518;28;20022;-73
2022/09/22 10:22:48;;;;;;;;;;;;;;;17.65;56.04;102263.63;5022112;28;20052;-74
2022/09/22 10:25:20;;;;;;;0.00;0.00;;;;;;;18.20;55.34;102257.13;5026482;28;19912;-74
2022/09/22 10:28:02;;;;;;;0.00;0.00;;;;;;;18.69;55.74;102254.59;5024742;28;20036;-71
2022/09/22 10:30:31;;;;;;;0.00;0.00;;;;;;;18.44;53.28;102257.66;5018760;28;20026;-71
2022/09/22 10:33:17;;;;;;;0.00;0.00;;;;;;;18.46;50.41;102248.53;5018913;28;20041;-73
2022/09/22 10:35:52;;;;;;;0.00;0.00;;;;;;;18.27;51.62;102247.44;5019496;28;20056;-70
2022/09/22 10:38:20;;;;;;;0.00;0.00;;;;;;;18.66;53.50;102239.41;5032910;28;20112;-76
2022/09/22 10:40:49;;;;;;;0.00;0.00;;;;;;;18.66;51.38;102238.56;5022197;28;20549;-74
2022/09/22 10:43:23;;;;;;;0.00;0.00;;;;;;;18.62;49.32;102226.25;5026570;28;20476;-74
2022/09/22 10:46:04;;;;;;;0.00;0.00;;;;;;;19.09;51.28;102225.63;5018959;28;20066;-74
2022/09/22 10:48:43;;;;;;;0.00;0.00;;;;;;;19.25;49.78;102204.16;5026288;28;20072;-75
2022/09/22 10:51:29;;;;;;;0.00;0.00;;;;;;;19.14;47.64;102204.28;5020488;28;20402;-74
2022/09/22 10:54:31;;;;;;;0.00;0.00;;;;;;;20.27;46.39;102218.13;5020661;28;20044;-75
2022/09/22 10:57:07;;;;;;;0.00;0.00;;;;;;;21.03;44.21;102196.19;5026626;28;20022;-74
2022/09/22 10:59:43;;;;;;;0.00;0.00;;;;;;;20.90;44.63;102216.53;5023084;28;20232;-74
2022/09/22 11:02:45;;;;;;;0.00;0.00;;;;;;;21.19;42.40;102182.66;5017879;28;20105;-75
2022/09/22 11:14:29;;;;;;;0.00;0.00;;;;;;;23.12;39.78;102190.63;5017791;28;20079;-74
2022/09/22 11:17:22;;;;;;;0.00;0.00;;;;;;;23.70;38.07;102198.84;4998345;28;20083;-74
2022/09/22 11:20:04;;;;;;;0.00;0.00;;;;;;;24.84;36.56;102182.13;5018120;28;20059;-74
2022/09/22 11:22:47;;;;;;;0.00;0.00;;;;;;;24.69;38.16;102206.72;5021556;28;20891;-75
2022/09/22 11:25:38;;;;;;;0.00;0.00;;;;;;;21.67;37.46;102202.38;5022022;28;20092;-70
2022/09/22 11:28:08;;;;;;;0.00;0.00;;;;;;;21.84;39.90;102202.47;5024505;28;20065;-72
2022/09/22 11:30:44;;;;;;;0.00;0.00;;;;;;;21.85;37.40;102185.91;5028710;28;20034;-72
2022/09/22 11:33:31;;;;;;;0.00;0.00;;;;;;;20.94;40.29;102192.50;5024976;28;20021;-74
2022/09/22 11:36:08;;;;;;;0.00;0.00;;;;;;;21.39;39.00;102187.94;5024001;28;20443;-74
2022/09/22 11:38:53;;;;;;;0.00;0.00;;;;;;;21.81;40.55;102200.94;5025023;28;20067;-75
2022/09/22 11:41:37;;;;;;;0.10;0.10;;;;;;;22.52;38.49;102191.72;5015393;28;20029;-74
2022/09/22 11:44:16;;;;;;;0.10;0.10;;;;;;;23.23;36.98;102172.19;5019110;28;20478;-74
2022/09/22 11:46:56;;;;;;;0.00;0.00;;;;;;;24.30;34.78;102177.44;5017567;28;20033;-74
2022/09/22 11:49:54;;;;;;;0.00;0.00;;;;;;;24.54;35.87;102153.63;5019117;28;20140;-76
2022/09/22 11:52:48;;;;;;;0.00;0.00;;;;;;;24.19;35.97;102173.19;5021818;28;20037;-72
2022/09/22 11:55:35;;;;;;;0.00;0.00;;;;;;;24.09;35.20;102169.81;5008439;28;20046;-72
2022/09/22 11:58:07;;;;;;;0.00;0.00;;;;;;;23.79;34.45;102166.78;5038345;28;20519;-74
2022/09/22 12:00:35;;;;;;;0.00;0.00;;;;;;;22.66;37.35;102168.31;5019728;28;20109;-76
2022/09/22 12:03:04;;;;;;;0.00;0.00;;;;;;;21.52;39.12;102165.66;5024788;28;20476;-77